Palomar (214, CTL1) Station Data

Red Flag Warning: No
Fire Weather Zone: 258
SDGE Region: North East
Lat/Lon: 33.352/-116.863

Observations

Time Wind Speed/Gust Temp(F) RH Fuel Moist Fuel Temp(F) Dewpt(F) Tmax(F) Tmin(F) Accum Precip 10-min Precip SL Press(mb)
5/24 8:20am 329 1 G 4 73° 11% - - 16° 73.5° 64.5° - - -
5/24 8:10am 240 2 G 5 71° 11% - - 14° 72.6° 64.5° - - -
5/24 8:00am 297 2 G 4 70° 9% - - 71.6° 64.5° - - -
5/24 7:50am 290 2 G 4 70° 8% - - 71.6° 64.5° - - -
5/24 7:40am 301 2 G 4 71° 7% - - 71.6° 64.5° - - -
5/24 7:30am 294 3 G 5 70° 7% - - 70.7° 64.5° - - -
5/24 7:20am 304 2 G 4 70° 6% - - 70.4° 64.5° - - -
5/24 7:10am 303 2 G 4 69° 5% - - - 69.8° 64.5° - - -
5/24 7:00am 299 2 G 5 69° 5% - - - 68.9° 64.5° - - -
5/24 6:50am 302 3 G 5 69° 5% - - - 68.9° 64.5° - - -
5/24 6:40am 300 3 G 6 69° 5% - - - 68.9° 64.5° - - -
5/24 6:30am 290 3 G 5 68° 5% - - - 68.7° 64.5° - - -
5/24 6:20am 298 3 G 4 67° 5% - - - 67.8° 64.5° - - -
5/24 6:10am 299 2 G 4 67° 5% - - - 67.7° 64.5° - - -
5/24 6:00am 311 2 G 5 67° 5% - - - 67.7° 64.5° - - -
5/24 5:50am 312 2 G 5 67° 5% - - - 67.7° 64.5° - - -
5/24 5:40am 327 2 G 5 66° 6% - - - 67.7° 64.5° - - -
5/24 5:30am 308 2 G 4 66° 6% - - - 67.7° 64.5° - - -
5/24 5:20am 293 2 G 4 65° 7% - - - 67.7° 64.5° - - -
5/24 5:10am 298 2 G 4 65° 8% - - 67.7° 64.5° - - -
5/24 5:00am 313 4 G 8 66° 8% - - 67.7° 64.5° - - -
5/24 4:50am 318 3 G 6 66° 7% - - 67.7° 64.5° - - -
5/24 4:40am 321 3 G 5 65° 8% - - 67.7° 64.5° - - -
5/24 4:30am 321 3 G 5 65° 10% - - 67.7° 64.5° - - -
5/24 4:20am 312 3 G 5 65° 12% - - 12° 67.7° 64.5° - - -
5/24 4:10am 319 3 G 6 65° 11% - - 67.7° 64.9° - - -
5/24 4:00am 312 2 G 4 65° 8% - - 67.7° 65° - - -
5/24 3:50am 308 3 G 7 65° 7% - - - 67.7° 65.2° - - -
5/24 3:40am 308 3 G 6 66° 7% - - - 67.7° 65.8° - - -
5/24 3:30am 317 4 G 7 67° 6% - - - 67.7° 65.8° - - -
5/24 3:20am 316 3 G 9 67° 6% - - - 67.7° 65.8° - - -
5/24 3:10am 324 4 G 10 67° 6% - - - 67.7° 65.8° - - -
5/24 3:00am 334 3 G 9 67° 6% - - - 67.7° 65.8° - - -
5/24 2:50am 324 3 G 8 67° 6% - - - 67.7° 65.8° - - -
5/24 2:40am 325 3 G 7 67° 6% - - - 67.7° 65.8° - - -
5/24 2:30am 325 3 G 8 67° 6% - - - 67.7° 65.8° - - -
5/24 2:20am 316 4 G 7 67° 6% - - - 67.7° 65.8° - - -
5/24 2:10am 317 4 G 7 67° 6% - - - 67.7° 65.8° - - -
5/24 2:00am 309 3 G 5 67° 7% - - 67.7° 65.8° - - -
5/24 1:50am 318 3 G 6 67° 8% - - 67.7° 65.8° - - -
5/24 1:40am 332 3 G 6 67° 9% - - 67.7° 65.8° - - -
5/24 1:30am 325 3 G 5 66° 14% - - 16° 67.7° 65.8° - - -
5/24 1:20am 326 3 G 5 66° 18% - - 22° 67.7° 65.8° - - -
5/24 1:10am 325 3 G 5 66° 20% - - 23° 67.7° 65.8° - - -
5/24 1:00am 323 3 G 7 66° 17% - - 21° 67.7° 66.1° - - -
5/24 12:50am 323 4 G 7 67° 17% - - 21° 67.7° 66.2° - - -
5/24 12:40am 318 4 G 8 67° 17% - - 21° 67.7° 66.5° - - -
5/24 12:30am 318 4 G 7 67° 16% - - 19° 67.7° 66.5° - - -
5/24 12:20am 308 3 G 7 67° 14% - - 17° 67.7° 66.9° - - -
5/24 12:10am 313 4 G 7 67° 13% - - 16° 67.7° 67.1° - - -
5/24 12:00am 312 4 G 8 67° 14% - - 16° 81.3° 65.5° - - -
5/23 11:50pm 316 4 G 7 68° 14% - - 18° 81.3° 65.5° - - -
5/23 11:40pm 304 4 G 7 68° 15% - - 18° 81.3° 65.5° - - -
5/23 11:30pm 295 3 G 7 68° 16% - - 19° 81.3° 65.5° - - -
5/23 11:20pm 292 4 G 7 67° 16% - - 20° 81.3° 65.5° - - -
5/23 11:10pm 287 4 G 8 67° 16% - - 20° 81.3° 65.5° - - -
5/23 11:00pm 284 4 G 8 67° 18% - - 21° 81.3° 65.5° - - -
5/23 10:50pm 280 4 G 7 67° 20% - - 24° 81.3° 65.5° - - -
5/23 10:40pm 295 3 G 6 68° 17% - - 22° 81.3° 65.5° - - -
5/23 10:30pm 307 3 G 6 68° 18% - - 23° 81.3° 65.5° - - -
5/23 10:20pm 314 4 G 8 68° 21% - - 27° 81.3° 65.5° - - -
5/23 10:10pm 322 4 G 8 67° 28% - - 33° 81.3° 65.5° - - -
5/23 10:00pm 322 4 G 8 68° 27% - - 33° 81.3° 65.5° - - -
5/23 9:50pm 324 3 G 6 67° 32% - - 36° 81.3° 65.5° - - -
5/23 9:40pm 326 3 G 7 67° 32% - - 36° 81.3° 65.5° - - -
5/23 9:30pm 325 3 G 7 68° 24% - - 29° 81.3° 65.5° - - -
5/23 9:20pm 298 3 G 6 67° 23% - - 28° 81.3° 65.5° - - -
5/23 9:10pm 309 3 G 6 67° 26% - - 31° 81.3° 65.5° - - -
5/23 9:00pm 287 2 G 4 67° 29% - - 34° 81.3° 65.5° - - -
5/23 8:50pm 294 3 G 5 67° 33% - - 37° 81.3° 65.5° - - -
5/23 8:40pm 308 3 G 6 67° 32% - - 36° 81.3° 65.5° - - -
5/23 8:30pm 313 3 G 5 67° 23% - - 28° 81.3° 65.5° - - -
5/23 8:20pm 320 2 G 5 67° 19% - - 24° 81.3° 65.5° - - -
5/23 8:10pm 316 3 G 6 68° 17% - - 22° 81.3° 65.5° - - -
5/23 8:00pm 316 3 G 6 68° 17% - - 21° 81.3° 65.5° - - -
5/23 7:50pm 315 3 G 6 69° 15% - - 20° 81.3° 65.5° - - -
5/23 7:40pm 320 3 G 6 69° 14% - - 19° 81.3° 65.5° - - -
5/23 7:30pm 318 3 G 6 70° 14% - - 19° 81.3° 65.5° - - -
5/23 7:20pm 319 4 G 7 71° 14% - - 20° 81.3° 65.5° - - -
5/23 7:10pm 307 3 G 7 72° 14% - - 21° 81.3° 65.5° - - -
5/23 7:00pm 312 4 G 8 73° 14% - - 20° 81.3° 65.5° - - -
5/23 6:50pm 313 4 G 9 73° 13% - - 20° 81.3° 65.5° - - -
5/23 6:40pm 316 5 G 9 73° 12% - - 19° 81.3° 65.5° - - -
5/23 6:30pm 315 4 G 9 74° 13% - - 19° 81.3° 65.5° - - -
5/23 6:20pm 323 3 G 8 74° 14% - - 21° 81.3° 65.5° - - -
5/23 6:10pm 316 4 G 9 75° 14% - - 22° 81.3° 65.5° - - -
5/23 6:00pm 308 4 G 8 76° 15% - - 25° 81.3° 65.5° - - -
5/23 5:50pm 273 5 G 10 75° 14% - - 23° 81.3° 65.5° - - -
5/23 5:40pm 282 6 G 10 76° 13% - - 22° 81.3° 65.5° - - -
5/23 5:30pm 284 4 G 8 77° 13% - - 22° 81.3° 65.5° - - -
5/23 5:20pm 265 5 G 9 76° 14% - - 23° 81.3° 65.5° - - -
5/23 5:10pm 256 3 G 7 77° 14% - - 24° 81.3° 65.5° - - -
5/23 5:00pm 253 4 G 11 76° 15% - - 26° 81.3° 65.5° - - -
5/23 4:50pm 262 7 G 13 76° 17% - - 28° 81.3° 65.5° - - -
5/23 4:40pm 269 7 G 13 76° 19% - - 30° 81.3° 65.5° - - -
5/23 4:30pm 262 5 G 11 77° 18% - - 30° 81.3° 65.5° - - -
5/23 4:20pm 258 5 G 13 77° 17% - - 29° 81.3° 65.5° - - -
5/23 4:10pm 245 5 G 12 77° 17% - - 28° 81.3° 65.5° - - -
5/23 4:00pm 254 5 G 11 78° 16% - - 28° 81.3° 65.5° - - -
5/23 3:50pm 260 6 G 13 78° 14% - - 25° 81.3° 65.5° - - -
5/23 3:40pm 257 5 G 12 78° 13% - - 24° 81.3° 65.5° - - -
5/23 3:30pm 246 4 G 11 79° 14% - - 25° 81.3° 65.5° - - -
5/23 3:20pm 243 4 G 12 79° 13% - - 24° 81.3° 65.5° - - -
5/23 3:10pm 208 4 G 9 79° 13% - - 24° 81.3° 65.5° - - -
5/23 3:00pm 221 4 G 9 79° 14% - - 25° 81.3° 65.5° - - -
5/23 2:50pm 244 5 G 10 79° 13% - - 25° 81.3° 65.5° - - -
5/23 2:40pm 254 5 G 11 79° 14% - - 26° 81.3° 65.5° - - -
5/23 2:30pm 249 5 G 11 79° 14% - - 26° 81.3° 65.5° - - -
5/23 2:20pm 209 5 G 13 80° 14% - - 26° 81.3° 65.5° - - -
5/23 2:10pm 213 4 G 12 79° 16% - - 29° 81.3° 65.5° - - -
5/23 2:00pm 233 4 G 11 80° 15% - - 28° 81.3° 65.5° - - -
5/23 1:50pm 187 4 G 12 80° 16% - - 29° 81.3° 65.5° - - -
5/23 1:40pm 205 5 G 12 79° 15% - - 28° 81.3° 65.5° - - -
5/23 1:30pm 199 5 G 11 80° 16% - - 30° 81.3° 65.5° - - -
5/23 1:20pm 209 4 G 10 80° 16% - - 30° 81.3° 65.5° - - -
5/23 1:10pm 214 4 G 9 80° 16% - - 30° 81.3° 65.5° - - -
5/23 1:00pm 230 3 G 7 80° 15% - - 28° 81.3° 65.5° - - -
5/23 12:50pm 203 4 G 11 80° 15% - - 27° 81.3° 65.5° - - -
5/23 12:40pm 168 6 G 16 79° 15% - - 28° 81.3° 65.5° - - -
5/23 12:30pm 171 5 G 15 80° 17% - - 31° 81.3° 65.5° - - -
5/23 12:20pm 148 5 G 9 79° 16% - - 30° 81.3° 65.5° - - -
5/23 12:10pm 141 5 G 12 80° 15% - - 28° 81.3° 65.5° - - -
5/23 12:00pm 151 5 G 13 79° 15% - - 28° 81.3° 65.5° - - -
5/23 11:50am 140 5 G 10 79° 14% - - 26° 81.3° 65.5° - - -
5/23 11:40am 137 6 G 12 79° 14% - - 26° 81.3° 65.5° - - -
5/23 11:30am 146 8 G 15 78° 14% - - 25° 81.3° 65.5° - - -
5/23 11:20am 145 6 G 15 78° 14% - - 25° 81.3° 65.5° - - -
5/23 11:10am 140 7 G 12 79° 14% - - 26° 81.3° 65.5° - - -
5/23 11:00am 131 4 G 8 79° 14% - - 26° 81.3° 65.5° - - -
5/23 10:50am 134 6 G 13 78° 14% - - 25° 81.3° 65.5° - - -
5/23 10:40am 129 6 G 12 78° 13% - - 24° 81.3° 65.5° - - -
5/23 10:30am 107 4 G 10 78° 14% - - 25° 81.3° 65.5° - - -
5/23 10:20am 127 5 G 12 77° 14% - - 24° 81.3° 65.5° - - -
5/23 10:10am 123 6 G 13 77° 14% - - 25° 81.3° 65.5° - - -
5/23 10:00am 124 5 G 13 78° 15% - - 26° 81.3° 65.5° - - -
5/23 9:50am 116 5 G 11 78° 15% - - 26° 81.3° 65.5° - - -
5/23 9:40am 87 4 G 8 77° 14% - - 23° 81.3° 65.5° - - -
5/23 9:30am 117 4 G 9 77° 14% - - 24° 81.3° 65.5° - - -
5/23 9:20am 116 2 G 5 78° 15% - - 26° 81.3° 65.5° - - -
5/23 9:10am 214 2 G 4 78° 14% - - 25° 81.3° 65.5° - - -
5/23 9:00am 190 2 G 5 77° 13% - - 23° 81.3° 65.5° - - -
5/23 8:50am 215 2 G 5 78° 14% - - 25° 81.3° 65.5° - - -
5/23 8:40am 218 1 G 2 79° 13% - - 24° 81.3° 65.5° - - -
5/23 8:30am 228 1 G 2 80° 13% - - 25° 81.3° 65.5° - - -
5/23 8:20am 190 0 G 1 81° 13% - - 24° 81.3° 65.5° - - -
5/23 8:10am 66 0 G 2 79° 14% - - 26° 81° 65.5° - - -
5/23 8:00am 8 1 G 3 75° 18% - - 29° 76° 65.5° - - -
5/23 7:50am 13 3 G 4 73° 18% - - 27° 73.6° 65.5° - - -
5/23 7:40am 12 3 G 5 73° 17% - - 25° 73.3° 65.5° - - -
5/23 7:30am 15 3 G 6 73° 15% - - 23° 73.3° 65.5° - - -
5/23 7:20am 15 3 G 5 73° 16% - - 23° 73° 65.5° - - -
5/23 7:10am 12 3 G 6 72° 16% - - 23° 72.2° 65.5° - - -
5/23 7:00am 3 2 G 5 71° 17% - - 25° 71.6° 65.5° - - -
5/23 6:50am 11 4 G 6 70° 16% - - 22° 71.1° 65.5° - - -
5/23 6:40am 359 3 G 5 70° 17% - - 24° 70.1° 65.5° - - -
5/23 6:30am 2 3 G 6 70° 18% - - 24° 69.9° 65.5° - - -
5/23 6:20am 7 4 G 6 69° 18% - - 24° 69.4° 65.5° - - -
5/23 6:10am 7 4 G 6 69° 18% - - 24° 69° 65.5° - - -
5/23 6:00am 3 4 G 6 69° 19% - - 25° 68.9° 65.5° - - -